Time,TemperatureF,DewpointF,PressureIn,WindDirection,WindDirectionDegrees,WindSpeedMPH,WindSpeedGustMPH,Humidity,HourlyPrecipIn,Conditions,Clouds,dailyrainin,SolarRadiationWatts/m^2,SoftwareType,DateUTC
2013-03-20 00:03:00,51.0,18.0,30.27,NNW,338,7.0,15.0,27,0.00,,,0.04,0.000000,,2013-03-20 04:03:00,
2013-03-20 00:12:00,51.0,18.0,30.27,NNW,338,7.0,15.0,27,0.00,,,0.04,0.000000,,2013-03-20 04:12:00,
2013-03-20 00:32:00,49.0,18.0,30.29,NNW,345,8.0,15.0,29,0.00,,,0.01,0.000000,,2013-03-20 04:32:00,
2013-03-20 00:43:00,49.0,18.0,30.29,NNW,345,8.0,15.0,29,0.00,,,0.01,0.000000,,2013-03-20 04:43:00,
2013-03-20 00:53:00,49.0,18.0,30.29,NNW,345,8.0,15.0,29,0.00,,,0.01,0.000000,,2013-03-20 04:53:00,
2013-03-20 01:03:00,49.0,18.0,30.29,NNW,345,8.0,15.0,29,0.00,,,0.01,0.000000,,2013-03-20 05:03:00,
2013-03-20 01:13:00,49.0,18.0,30.29,NNW,345,8.0,15.0,29,0.00,,,0.01,0.000000,,2013-03-20 05:13:00,
2013-03-20 01:33:00,48.0,16.0,30.29,NNW,342,7.0,16.0,28,0.00,,,0.00,0.000000,,2013-03-20 05:33:00,
2013-03-20 01:43:00,48.0,16.0,30.29,NNW,342,7.0,16.0,28,0.00,,,0.00,0.000000,,2013-03-20 05:43:00,
2013-03-20 01:53:00,48.0,16.0,30.29,NNW,342,7.0,16.0,28,0.00,,,0.00,0.000000,,2013-03-20 05:53:00,
2013-03-20 02:03:00,48.0,16.0,30.29,NNW,342,7.0,16.0,28,0.00,,,0.00,0.000000,,2013-03-20 06:03:00,
2013-03-20 02:13:00,48.0,16.0,30.29,NNW,342,7.0,16.0,28,0.00,,,0.00,0.000000,,2013-03-20 06:13:00,
2013-03-20 02:43:00,46.0,14.0,30.30,North,350,6.0,13.0,27,0.00,,,0.00,0.000000,,2013-03-20 06:43:00,
2013-03-20 02:53:00,46.0,14.0,30.30,North,350,6.0,13.0,27,0.00,,,0.00,0.000000,,2013-03-20 06:53:00,
2013-03-20 03:02:00,46.0,14.0,30.30,North,350,6.0,13.0,27,0.00,,,0.00,0.000000,,2013-03-20 07:02:00,
2013-03-20 03:12:00,46.0,14.0,30.30,North,350,6.0,13.0,27,0.00,,,0.00,0.000000,,2013-03-20 07:12:00,
2013-03-20 03:32:00,45.0,16.0,30.30,North,1,5.0,10.0,31,0.00,,,0.00,0.000000,,2013-03-20 07:32:00,
2013-03-20 03:42:00,45.0,16.0,30.30,North,1,5.0,10.0,31,0.00,,,0.00,0.000000,,2013-03-20 07:42:00,
2013-03-20 03:52:00,45.0,16.0,30.30,North,1,5.0,10.0,31,0.00,,,0.00,0.000000,,2013-03-20 07:52:00,
2013-03-20 04:02:00,45.0,16.0,30.30,North,1,5.0,10.0,31,0.00,,,0.00,0.000000,,2013-03-20 08:02:00,
2013-03-20 04:13:00,45.0,16.0,30.30,North,1,5.0,10.0,31,0.00,,,0.00,0.000000,,2013-03-20 08:13:00,
2013-03-20 04:42:00,42.0,13.0,30.29,North,4,7.0,12.0,30,0.00,,,0.00,0.000000,,2013-03-20 08:42:00,
2013-03-20 04:52:00,42.0,13.0,30.29,North,4,7.0,12.0,30,0.00,,,0.00,0.000000,,2013-03-20 08:52:00,
2013-03-20 05:02:00,42.0,13.0,30.29,North,4,7.0,12.0,30,0.00,,,0.00,0.000000,,2013-03-20 09:02:00,
2013-03-20 05:12:00,42.0,13.0,30.29,North,4,7.0,12.0,30,0.00,,,0.00,0.000000,,2013-03-20 09:12:00,
2013-03-20 05:43:00,40.0,10.0,30.29,North,5,6.0,13.0,29,0.00,,,0.00,0.000000,,2013-03-20 09:43:00,
2013-03-20 05:53:00,40.0,10.0,30.29,North,5,6.0,13.0,29,0.00,,,0.00,0.000000,,2013-03-20 09:53:00,
2013-03-20 06:03:00,40.0,10.0,30.29,North,5,6.0,13.0,29,0.00,,,0.00,0.000000,,2013-03-20 10:03:00,
2013-03-20 06:13:00,40.0,10.0,30.29,North,5,6.0,13.0,29,0.00,,,0.00,0.000000,,2013-03-20 10:13:00,
2013-03-20 06:33:00,41.0,10.0,30.31,North,10,6.0,10.0,27,0.00,,,0.00,0.000000,,2013-03-20 10:33:00,
2013-03-20 06:43:00,41.0,10.0,30.31,North,10,6.0,10.0,27,0.00,,,0.00,0.000000,,2013-03-20 10:43:00,
2013-03-20 06:53:00,41.0,10.0,30.31,North,10,6.0,10.0,27,0.00,,,0.00,0.000000,,2013-03-20 10:53:00,
2013-03-20 07:03:00,41.0,10.0,30.31,North,10,6.0,10.0,27,0.00,,,0.00,0.000000,,2013-03-20 11:03:00,
2013-03-20 07:12:00,41.0,10.0,30.31,North,10,6.0,10.0,27,0.00,,,0.00,0.000000,,2013-03-20 11:12:00,
2013-03-20 07:32:00,42.0,10.0,30.34,North,7,6.0,13.0,27,0.00,,,0.00,0.000000,,2013-03-20 11:32:00,
2013-03-20 07:43:00,42.0,10.0,30.34,North,7,6.0,13.0,27,0.00,,,0.00,0.000000,,2013-03-20 11:43:00,
2013-03-20 07:52:00,42.0,10.0,30.34,North,7,6.0,13.0,27,0.00,,,0.00,0.000000,,2013-03-20 11:52:00,
2013-03-20 08:02:00,42.0,10.0,30.34,North,7,6.0,13.0,27,0.00,,,0.00,0.000000,,2013-03-20 12:02:00,
2013-03-20 08:12:00,42.0,10.0,30.34,North,7,6.0,13.0,27,0.00,,,0.00,0.000000,,2013-03-20 12:12:00,
2013-03-20 08:33:00,41.0,11.0,30.35,NNE,24,6.0,11.0,29,0.00,,,-99.99,29.000000,,2013-03-20 12:33:00,
2013-03-20 08:43:00,41.0,11.0,30.35,NNE,24,6.0,11.0,29,0.00,,,-99.99,29.000000,,2013-03-20 12:43:00,
2013-03-20 08:52:00,41.0,11.0,30.35,NNE,24,6.0,11.0,29,0.00,,,-99.99,29.000000,,2013-03-20 12:52:00,
2013-03-20 09:03:00,41.0,11.0,30.35,NNE,24,6.0,11.0,29,0.00,,,-99.99,29.000000,,2013-03-20 13:03:00,
2013-03-20 09:12:00,41.0,11.0,30.35,NNE,24,6.0,11.0,29,0.00,,,-99.99,29.000000,,2013-03-20 13:12:00,
2013-03-20 09:43:00,46.0,9.0,30.38,NNE,20,9.0,17.0,22,0.00,,,0.00,136.000000,,2013-03-20 13:43:00,
2013-03-20 09:53:00,46.0,9.0,30.38,NNE,20,9.0,17.0,22,0.00,,,0.00,136.000000,,2013-03-20 13:53:00,
2013-03-20 10:03:00,46.0,9.0,30.38,NNE,20,9.0,17.0,22,0.00,,,0.00,136.000000,,2013-03-20 14:03:00,
2013-03-20 10:12:00,46.0,9.0,30.38,NNE,20,9.0,17.0,22,0.00,,,0.00,136.000000,,2013-03-20 14:12:00,
2013-03-20 10:43:00,50.0,9.0,30.39,NE,36,9.0,18.0,19,0.00,,,0.00,346.000000,,2013-03-20 14:43:00,
2013-03-20 10:53:00,50.0,9.0,30.39,NE,36,9.0,18.0,19,0.00,,,0.00,346.000000,,2013-03-20 14:53:00,
2013-03-20 11:03:00,50.0,9.0,30.39,NE,36,9.0,18.0,19,0.00,,,0.00,346.000000,,2013-03-20 15:03:00,
2013-03-20 11:12:00,50.0,9.0,30.39,NE,36,9.0,18.0,19,0.00,,,0.00,346.000000,,2013-03-20 15:12:00,
2013-03-20 11:43:00,50.0,7.0,30.37,NNE,16,6.0,20.0,17,0.00,,,0.00,292.000000,,2013-03-20 15:43:00,
2013-03-20 11:53:00,50.0,7.0,30.37,NNE,16,6.0,20.0,17,0.00,,,0.00,292.000000,,2013-03-20 15:53:00,
2013-03-20 12:03:00,50.0,7.0,30.37,NNE,16,6.0,20.0,17,0.00,,,0.00,292.000000,,2013-03-20 16:03:00,
2013-03-20 12:13:00,50.0,7.0,30.37,NNE,16,6.0,20.0,17,0.00,,,0.00,292.000000,,2013-03-20 16:13:00,
2013-03-20 12:33:00,52.0,9.0,30.36,NE,45,4.0,15.0,17,0.00,,,0.00,493.000000,,2013-03-20 16:33:00,
2013-03-20 12:43:00,52.0,9.0,30.36,NE,45,4.0,15.0,17,0.00,,,0.00,493.000000,,2013-03-20 16:43:00,
2013-03-20 12:53:00,52.0,9.0,30.36,NE,45,4.0,15.0,17,0.00,,,0.00,493.000000,,2013-03-20 16:53:00,
2013-03-20 13:03:00,52.0,9.0,30.36,NE,45,4.0,15.0,17,0.00,,,0.00,493.000000,,2013-03-20 17:03:00,
2013-03-20 13:12:00,52.0,9.0,30.36,NE,45,4.0,15.0,17,0.00,,,0.00,493.000000,,2013-03-20 17:12:00,
2013-03-20 13:42:00,56.0,9.0,30.33,NNW,330,5.0,11.0,15,0.00,,,0.00,665.000000,,2013-03-20 17:42:00,
2013-03-20 13:53:00,56.0,9.0,30.33,NNW,330,5.0,11.0,15,0.00,,,0.00,665.000000,,2013-03-20 17:53:00,
2013-03-20 14:02:00,56.0,9.0,30.33,NNW,330,5.0,11.0,15,0.00,,,0.00,665.000000,,2013-03-20 18:02:00,
2013-03-20 14:12:00,56.0,9.0,30.33,NNW,330,5.0,11.0,15,0.00,,,0.00,665.000000,,2013-03-20 18:12:00,
2013-03-20 14:34:00,57.0,8.0,30.28,NNE,21,3.0,13.0,14,0.00,,,0.00,894.000000,,2013-03-20 18:34:00,
2013-03-20 14:43:00,57.0,8.0,30.28,NNE,21,3.0,13.0,14,0.00,,,0.00,894.000000,,2013-03-20 18:43:00,
2013-03-20 14:53:00,57.0,8.0,30.28,NNE,21,3.0,13.0,14,0.00,,,0.00,894.000000,,2013-03-20 18:53:00,
2013-03-20 15:02:00,57.0,8.0,30.28,NNE,21,3.0,13.0,14,0.00,,,0.00,894.000000,,2013-03-20 19:02:00,
2013-03-20 15:12:00,57.0,8.0,30.28,NNE,21,3.0,13.0,14,0.00,,,0.00,894.000000,,2013-03-20 19:12:00,
2013-03-20 15:42:00,61.0,11.0,30.23,WSW,252,3.0,13.0,14,0.00,,,0.00,881.000000,,2013-03-20 19:42:00,
2013-03-20 15:53:00,61.0,11.0,30.23,WSW,252,3.0,13.0,14,0.00,,,0.00,881.000000,,2013-03-20 19:53:00,
2013-03-20 16:02:00,61.0,11.0,30.23,WSW,252,3.0,13.0,14,0.00,,,0.00,881.000000,,2013-03-20 20:02:00,
2013-03-20 16:13:00,61.0,11.0,30.23,WSW,252,3.0,13.0,14,0.00,,,0.00,881.000000,,2013-03-20 20:13:00,
2013-03-20 16:32:00,60.0,12.0,30.18,WNW,289,4.0,13.0,15,0.00,,,0.00,758.000000,,2013-03-20 20:32:00,
2013-03-20 16:43:00,60.0,12.0,30.18,WNW,289,4.0,13.0,15,0.00,,,0.00,758.000000,,2013-03-20 20:43:00,
2013-03-20 16:53:00,60.0,12.0,30.18,WNW,289,4.0,13.0,15,0.00,,,0.00,758.000000,,2013-03-20 20:53:00,
2013-03-20 17:02:00,60.0,12.0,30.18,WNW,289,4.0,13.0,15,0.00,,,0.00,758.000000,,2013-03-20 21:02:00,
2013-03-20 17:12:00,60.0,12.0,30.18,WNW,289,4.0,13.0,15,0.00,,,0.00,758.000000,,2013-03-20 21:12:00,
2013-03-20 17:33:00,58.0,13.0,30.14,SSW,196,4.0,13.0,17,0.00,,,0.00,375.000000,,2013-03-20 21:33:00,
2013-03-20 17:42:00,58.0,13.0,30.14,SSW,196,4.0,13.0,17,0.00,,,0.00,375.000000,,2013-03-20 21:42:00,
2013-03-20 17:53:00,58.0,13.0,30.14,SSW,196,4.0,13.0,17,0.00,,,0.00,375.000000,,2013-03-20 21:53:00,
2013-03-20 18:03:00,58.0,13.0,30.14,SSW,196,4.0,13.0,17,0.00,,,0.00,375.000000,,2013-03-20 22:03:00,
2013-03-20 18:13:00,58.0,13.0,30.14,SSW,196,4.0,13.0,17,0.00,,,0.00,375.000000,,2013-03-20 22:13:00,
2013-03-20 18:33:00,56.0,16.0,30.14,SW,218,6.0,11.0,20,0.00,,,0.00,175.000000,,2013-03-20 22:33:00,
2013-03-20 18:43:00,56.0,16.0,30.14,SW,218,6.0,11.0,20,0.00,,,0.00,175.000000,,2013-03-20 22:43:00,
2013-03-20 18:53:00,56.0,16.0,30.14,SW,218,6.0,11.0,20,0.00,,,0.00,175.000000,,2013-03-20 22:53:00,
2013-03-20 19:03:00,56.0,16.0,30.14,SW,218,6.0,11.0,20,0.00,,,0.00,175.000000,,2013-03-20 23:03:00,
2013-03-20 19:12:00,56.0,16.0,30.14,SW,218,6.0,11.0,20,0.00,,,0.00,175.000000,,2013-03-20 23:12:00,
2013-03-20 19:33:00,54.0,18.0,30.15,SSW,206,7.0,17.0,24,0.00,,,0.00,73.000000,,2013-03-20 23:33:00,
2013-03-20 19:43:00,54.0,18.0,30.15,SSW,206,7.0,17.0,24,0.00,,,0.00,73.000000,,2013-03-20 23:43:00,
2013-03-20 19:53:00,54.0,18.0,30.15,SSW,206,7.0,17.0,24,0.00,,,0.00,73.000000,,2013-03-20 23:53:00,
2013-03-20 20:03:00,54.0,18.0,30.15,SSW,206,7.0,17.0,24,0.00,,,0.00,73.000000,,2013-03-21 00:03:00,
2013-03-20 20:13:00,54.0,18.0,30.15,SSW,206,7.0,17.0,24,0.00,,,0.00,73.000000,,2013-03-21 00:13:00,
2013-03-20 20:33:00,47.0,18.0,30.13,South,189,5.0,12.0,31,0.00,,,0.00,4.000000,,2013-03-21 00:33:00,
2013-03-20 20:42:00,47.0,18.0,30.13,South,189,5.0,12.0,31,0.00,,,0.00,4.000000,,2013-03-21 00:42:00,
2013-03-20 20:53:00,47.0,18.0,30.13,South,189,5.0,12.0,31,0.00,,,0.00,4.000000,,2013-03-21 00:53:00,
2013-03-20 21:02:00,47.0,18.0,30.13,South,189,5.0,12.0,31,0.00,,,0.00,4.000000,,2013-03-21 01:02:00,
2013-03-20 21:12:00,47.0,18.0,30.13,South,189,5.0,12.0,31,0.00,,,0.00,4.000000,,2013-03-21 01:12:00,
2013-03-20 21:42:00,45.0,20.0,30.12,SSW,194,7.0,9.0,37,0.00,,,0.00,0.000000,,2013-03-21 01:42:00,
2013-03-20 21:53:00,45.0,20.0,30.12,SSW,194,7.0,9.0,37,0.00,,,0.00,0.000000,,2013-03-21 01:53:00,
2013-03-20 22:03:00,45.0,20.0,30.12,SSW,194,7.0,9.0,37,0.00,,,0.00,0.000000,,2013-03-21 02:03:00,
2013-03-20 22:13:00,45.0,20.0,30.12,SSW,194,7.0,9.0,37,0.00,,,0.00,0.000000,,2013-03-21 02:13:00,
2013-03-20 23:02:00,42.0,19.0,30.11,South,186,6.0,11.0,39,0.00,,,0.00,0.000000,,2013-03-21 03:02:00,
2013-03-20 23:12:00,42.0,19.0,30.11,South,186,6.0,11.0,39,0.00,,,0.00,0.000000,,2013-03-21 03:12:00,
2013-03-20 23:33:00,43.0,19.0,30.08,South,180,6.0,10.0,38,0.00,,,0.00,0.000000,,2013-03-21 03:33:00,
2013-03-20 23:43:00,43.0,19.0,30.08,South,180,6.0,10.0,38,0.00,,,0.00,0.000000,,2013-03-21 03:43:00,
2013-03-20 23:53:00,43.0,19.0,30.08,South,180,6.0,10.0,38,0.00,,,0.00,0.000000,,2013-03-21 03:53:00,